Forecast Period:  6 am 17th September 2019 to 12 noon 17th September 2019 
Synopsis: The tail-end of a tropical wave is affecting the islands
Forecast: Generally cloudy and breezy at times with some scattered showers, occasional rain and possible isolated thunderstorms

Weather 
Advisory:

Residents near rivers and streams and in areas prone to flash-flooding should remain alert.

Winds: E - ESE at 20 to 40 km/h with higher gust near showers
Sea Conditions: Moderate in open water; with swells 2.0m to 2.5m
Marine 
Advisory/Warning:

Small craft operators and sea bathers should exercise caution

Upcoming Tides:
 High: 8:32 am  9:32 pm  
 Low: **** 4:15 pm

Aviation WX

[Source: ADDS]
METAR
TVSA 181100Z 08004KT 030V110 9999 SCT018 28/25 Q1011 NOSIG =
TVSA 181100Z 1812/1912 09005KT 9999 SCT018 PROB40 TEMPO 1900/1909 SHRA BKN015 SCT038
TAF
TVSA 181100Z 1812/1912 09005KT 9999 SCT018 PROB40 TEMPO 1900/1909 SHRA BKN015 SCT038 =
SR / SS: 09:53 / 22:03 UTC (Sunrise Sunset 2019-09-18)